F/vphalene — FHLG — position and weather

sailwx.info

Track history (hours):
 
Tides and Currents Weather Stations Pressure Air Temp Water Temp Dewpoint Dewpoint Depression Visibility Wind Speed Wind Dir Waves Ship Positions

F/vphalene

Last reported at 2017-Nov-20 00:19 UTC. Time now 2017-Nov-24 02:07 UTC.
Position N 47°26' W 003°44'.

Length 14 m; draft 4 m.

Type: Fishing. MMSI: 228313000.

Date/timePositionNaut miles runAvg speedWind from/ knotsBaromVisibWave heightAir tempDewpointWater temp
2017-Nov-20 00:19N 47°26' W 003°44'1 3.9
2017-Nov-20 00:00N 47°26' W 003°45'2 4.0
2017-Nov-19 23:30N 47°26' W 003°48'2 2.9
2017-Nov-19 22:57N 47°25' W 003°50'2 3.7
2017-Nov-19 22:22N 47°25' W 003°47'2 4.1
2017-Nov-19 21:57N 47°24' W 003°44'1 2.0
2017-Nov-19 21:29N 47°25' W 003°43'3 3.0
2017-Nov-19 20:36N 47°23' W 003°47'1 3.9
2017-Nov-19 20:25N 47°23' W 003°45'2 3.9
2017-Nov-19 20:00N 47°22' W 003°44'2 4.0
2017-Nov-19 19:29N 47°21' W 003°42'2 3.9
2017-Nov-19 18:57N 47°19' W 003°41'2 3.4
2017-Nov-19 18:17N 47°20' W 003°38'1 3.5
2017-Nov-19 17:59N 47°20' W 003°37'2 4.1
2017-Nov-19 17:29N 47°20' W 003°34'2 2.7
2017-Nov-19 16:38N 47°23' W 003°33'1 4.2
2017-Nov-19 16:30N 47°23' W 003°34'2 3.9
2017-Nov-19 15:57N 47°24' W 003°37'2 4.1
2017-Nov-19 15:30N 47°25' W 003°39'1 2.7
2017-Nov-19 15:00N 47°26' W 003°39'2 3.6
2017-Nov-19 14:30N 47°26' W 003°37'2 3.3
2017-Nov-19 13:55N 47°27' W 003°35'1 3.4
2017-Nov-19 13:30N 47°28' W 003°37'2 3.6
2017-Nov-19 13:00N 47°26' W 003°38'2 3.4
2017-Nov-19 12:30N 47°26' W 003°36'2 3.4
2017-Nov-19 12:00N 47°27' W 003°35'2 3.3
2017-Nov-19 11:30N 47°27' W 003°37'2 3.8
2017-Nov-19 11:00N 47°25' W 003°38'2 3.8
2017-Nov-19 10:30N 47°24' W 003°36'2 3.9
2017-Nov-19 10:00N 47°22' W 003°34'1 1.6
2017-Nov-19 09:18N 47°22' W 003°33'1 4.0
2017-Nov-19 09:00N 47°22' W 003°34'2 3.9
2017-Nov-19 08:30N 47°23' W 003°37'2 3.2
2017-Nov-19 07:56N 47°25' W 003°38'2 4.2
2017-Nov-19 07:25N 47°27' W 003°38'3 4.2
2017-Nov-19 06:37N 47°30' W 003°38'0 4.1
2017-Nov-19 06:30N 47°31' W 003°38'2 4.3
2017-Nov-19 06:00N 47°33' W 003°38'4 8.7
2017-Nov-19 05:30N 47°37' W 003°34'4 8.5
2017-Nov-19 05:00N 47°40' W 003°30'4 8.4
2017-Nov-19 04:30N 47°41' W 003°24'2 5.0
2017-Nov-19 04:00N 47°43' W 003°21'0 0.0
2017-Nov-17 20:15N 47°43' W 003°21'1 4.1
2017-Nov-17 19:59N 47°44' W 003°22'0 0.1
2017-Nov-17 19:30N 47°44' W 003°22'4 7.1
2017-Nov-17 19:00N 47°41' W 003°25'4 8.4
2017-Nov-17 18:30N 47°39' W 003°31'4 8.7
2017-Nov-17 18:00N 47°36' W 003°35'4 7.8
2017-Nov-17 17:30N 47°33' W 003°38'2 3.1
2017-Nov-17 17:00N 47°32' W 003°40'2 3.6
2017-Nov-17 16:31N 47°30' W 003°40'2 3.5
2017-Nov-17 16:00N 47°29' W 003°38'2 3.5
2017-Nov-17 15:30N 47°31' W 003°37'2 3.1
2017-Nov-17 15:00N 47°31' W 003°39'2 3.2
2017-Nov-17 14:30N 47°29' W 003°39'2 3.8
2017-Nov-17 14:00N 47°29' W 003°36'1 2.0
2017-Nov-17 13:30N 47°29' W 003°35'2 4.0
2017-Nov-17 13:00N 47°31' W 003°37'1 2.7
2017-Nov-17 12:30N 47°32' W 003°35'2 3.8
2017-Nov-17 12:00N 47°30' W 003°33'1 2.8
2017-Nov-17 11:30N 47°29' W 003°35'2 3.9
2017-Nov-17 11:00N 47°31' W 003°36'1 2.7
2017-Nov-17 10:30N 47°32' W 003°35'2 3.9
2017-Nov-17 10:00N 47°30' W 003°33'1 2.2
2017-Nov-17 09:30N 47°29' W 003°33'2 3.6
2017-Nov-17 09:00N 47°30' W 003°35'2 3.8
2017-Nov-17 08:29N 47°32' W 003°36'2 3.2
2017-Nov-17 08:00N 47°31' W 003°34'2 3.9
2017-Nov-17 07:30N 47°29' W 003°33'2 3.2
2017-Nov-17 07:00N 47°30' W 003°35'2 4.1
2017-Nov-17 06:30N 47°31' W 003°36'13 3.3
2017-Nov-17 02:31N 47°41' W 003°23'0 7.8
2017-Nov-17 02:31N 47°41' W 003°23'2 4.8
2017-Nov-17 02:00N 47°44' W 003°22'0 0.4
2017-Nov-17 01:30N 47°44' W 003°22'3 5.7
2017-Nov-17 01:00N 47°41' W 003°22'4 8.8
2017-Nov-17 00:30N 47°37' W 003°24'4 8.3
2017-Nov-17 00:00N 47°34' W 003°28'2 3.7
2017-Nov-16 23:30N 47°32' W 003°29'2 4.1
2017-Nov-16 23:00N 47°30' W 003°31'2 4.0
2017-Nov-16 22:30N 47°29' W 003°32'2 3.5
2017-Nov-16 22:00N 47°27' W 003°32'2 4.0
2017-Nov-16 21:30N 47°26' W 003°30'2 4.1
2017-Nov-16 21:00N 47°24' W 003°28'2 3.9
2017-Nov-16 20:30N 47°22' W 003°28'3 3.7
2017-Nov-16 19:49N 47°24' W 003°30'1 3.9
2017-Nov-16 19:31N 47°25' W 003°31'2 3.9
2017-Nov-16 19:00N 47°26' W 003°34'2 3.8
2017-Nov-16 18:30N 47°27' W 003°36'2 3.1
2017-Nov-16 17:58N 47°28' W 003°36'2 3.2
2017-Nov-16 17:23N 47°30' W 003°36'1 3.5
2017-Nov-16 17:00N 47°30' W 003°34'1 2.6
2017-Nov-16 16:30N 47°29' W 003°34'2 3.8
2017-Nov-16 16:01N 47°30' W 003°36'2 3.5
2017-Nov-16 15:30N 47°32' W 003°36'2 3.4
2017-Nov-16 15:01N 47°31' W 003°34'2 3.3
2017-Nov-16 14:30N 47°29' W 003°33'2 3.7
2017-Nov-16 14:00N 47°30' W 003°36'2 3.4
2017-Nov-16 13:30N 47°31' W 003°37'1 2.8
2017-Nov-16 13:00N 47°31' W 003°35'2 3.6
2017-Nov-16 12:30N 47°30' W 003°33'1 2.2
2017-Nov-16 11:54N 47°29' W 003°35'2 4.1
2017-Nov-16 11:30N 47°31' W 003°36'2 3.4
2017-Nov-16 11:00N 47°32' W 003°35'2 3.3
2017-Nov-16 10:31N 47°31' W 003°33'2 3.8
2017-Nov-16 10:01N 47°30' W 003°31'1 2.1
2017-Nov-16 09:30N 47°29' W 003°31'2 3.5
2017-Nov-16 09:00N 47°30' W 003°33'2 3.6
2017-Nov-16 08:30N 47°32' W 003°32'2 3.4
2017-Nov-16 08:00N 47°31' W 003°30'2 3.3
2017-Nov-16 07:30N 47°29' W 003°32'2 3.9
2017-Nov-16 07:00N 47°31' W 003°33'2 3.9
2017-Nov-16 06:31N 47°32' W 003°31'10 3.4
2017-Nov-16 03:35N 47°40' W 003°23'1 7.8
2017-Nov-16 03:30N 47°41' W 003°22'3 5.7
2017-Nov-16 03:01N 47°44' W 003°22'0 0.4
2017-Nov-16 02:29N 47°44' W 003°22'1 2.6
2017-Nov-16 02:00N 47°43' W 003°22'4 8.9
2017-Nov-16 01:30N 47°38' W 003°23'4 8.6
2017-Nov-16 01:01N 47°35' W 003°27'2 4.6
2017-Nov-16 00:30N 47°33' W 003°29'2 3.9
2017-Nov-16 00:00N 47°31' W 003°30'2 3.9
2017-Nov-15 23:30N 47°29' W 003°31'2 3.9
2017-Nov-15 23:00N 47°28' W 003°33'2 3.7
2017-Nov-15 22:31N 47°26' W 003°31'2 4.0
2017-Nov-15 22:00N 47°25' W 003°29'0 0.5
2017-Nov-15 21:27N 47°25' W 003°29'2 3.7
2017-Nov-15 21:00N 47°26' W 003°30'2 3.8
2017-Nov-15 20:30N 47°28' W 003°31'1 2.9
2017-Nov-15 20:01N 47°28' W 003°33'2 3.7
2017-Nov-15 19:31N 47°26' W 003°31'2 3.3
2017-Nov-15 19:00N 47°26' W 003°29'2 4.0
2017-Nov-15 18:30N 47°28' W 003°30'2 4.0
2017-Nov-15 18:01N 47°30' W 003°30'2 4.1
2017-Nov-15 17:30N 47°32' W 003°30'3 2.8
2017-Nov-15 16:33N 47°34' W 003°31'0 3.8
2017-Nov-15 16:29N 47°34' W 003°31'2 3.8
2017-Nov-15 16:00N 47°32' W 003°31'2 3.3
2017-Nov-15 15:30N 47°31' W 003°32'1 2.3
2017-Nov-15 15:00N 47°32' W 003°32'2 3.7
2017-Nov-15 14:31N 47°33' W 003°31'2 3.9
2017-Nov-15 13:59N 47°35' W 003°33'2 3.8
2017-Nov-15 13:28N 47°37' W 003°35'1 2.5
2017-Nov-15 13:00N 47°35' W 003°35'2 3.9
2017-Nov-15 12:30N 47°35' W 003°32'2 3.8
2017-Nov-15 12:00N 47°33' W 003°30'2 3.1
2017-Nov-15 11:30N 47°34' W 003°32'2 3.8
2017-Nov-15 10:59N 47°36' W 003°34'1 1.9
2017-Nov-15 10:30N 47°35' W 003°35'2 3.9
2017-Nov-15 10:00N 47°34' W 003°32'2 4.1
2017-Nov-15 09:30N 47°33' W 003°30'1 2.4
2017-Nov-15 09:00N 47°34' W 003°32'2 3.9
2017-Nov-15 08:30N 47°35' W 003°33'2 3.3
2017-Nov-15 08:00N 47°35' W 003°35'2 3.6
2017-Nov-15 07:30N 47°35' W 003°38'1 2.5
2017-Nov-15 06:53N 47°36' W 003°39'2 3.9
2017-Nov-15 06:30N 47°36' W 003°37'2 3.5
2017-Nov-15 05:59N 47°34' W 003°36'2 4.5
2017-Nov-15 05:29N 47°36' W 003°34'4 8.3
2017-Nov-15 04:59N 47°40' W 003°31'4 8.7
2017-Nov-15 04:30N 47°41' W 003°25'3 3.6
2017-Nov-15 03:35N 47°43' W 003°21'0 4.9
2017-Nov-15 03:30N 47°43' W 003°22'1 0.4
2017-Nov-15 01:50N 47°44' W 003°22'3 8.4
2017-Nov-15 01:30N 47°41' W 003°22'4 8.8
2017-Nov-15 01:01N 47°37' W 003°23'4 8.2
2017-Nov-15 00:30N 47°33' W 003°27'5 8.8
2017-Nov-14 23:59N 47°30' W 003°31'2 4.0
2017-Nov-14 23:30N 47°28' W 003°30'2 3.7
2017-Nov-14 23:00N 47°26' W 003°29'2 3.9
2017-Nov-14 22:29N 47°24' W 003°29'2 3.4
2017-Nov-14 22:00N 47°23' W 003°28'3 3.4
2017-Nov-14 21:01N 47°26' W 003°28'0 4.0
2017-Nov-14 21:00N 47°26' W 003°28'2 3.9
2017-Nov-14 20:29N 47°28' W 003°29'2 4.0
2017-Nov-14 20:00N 47°30' W 003°30'2 4.1
2017-Nov-14 19:30N 47°32' W 003°31'2 4.0
2017-Nov-14 19:00N 47°34' W 003°32'1 1.7
2017-Nov-14 18:30N 47°34' W 003°30'2 3.0
2017-Nov-14 17:59N 47°34' W 003°32'2 3.3
2017-Nov-14 17:30N 47°36' W 003°34'2 3.6
2017-Nov-14 17:00N 47°35' W 003°37'1 2.3
2017-Nov-14 16:30N 47°35' W 003°38'1 2.4
2017-Nov-14 16:00N 47°34' W 003°38'2 4.3
2017-Nov-14 15:30N 47°35' W 003°41'2 4.3
2017-Nov-14 15:00N 47°36' W 003°44'2 4.2
2017-Nov-14 14:30N 47°38' W 003°46'1 2.7
2017-Nov-14 14:00N 47°38' W 003°44'2 4.0
2017-Nov-14 13:30N 47°36' W 003°42'1 2.2
2017-Nov-14 13:00N 47°36' W 003°44'2 2.9
2017-Nov-14 12:15N 47°38' W 003°45'2 3.7
2017-Nov-14 11:45N 47°38' W 003°42'1 3.6
2017-Nov-14 11:30N 47°37' W 003°43'2 3.7
2017-Nov-14 11:00N 47°35' W 003°42'2 3.9
2017-Nov-14 10:30N 47°34' W 003°39'1 1.9
2017-Nov-14 10:00N 47°35' W 003°38'1 1.8
2017-Nov-14 09:30N 47°35' W 003°39'2 3.2
2017-Nov-14 09:00N 47°34' W 003°38'2 3.1
2017-Nov-14 08:30N 47°35' W 003°39'1 1.4
2017-Nov-14 08:00N 47°35' W 003°39'1 2.7
2017-Nov-14 07:30N 47°34' W 003°38'2 3.8
2017-Nov-14 07:00N 47°36' W 003°40'2 3.1
2017-Nov-14 06:30N 47°36' W 003°38'2 4.2
2017-Nov-14 06:00N 47°34' W 003°36'0 1.0
2017-Nov-14 05:30N 47°34' W 003°36'3 6.0
2017-Nov-14 05:00N 47°37' W 003°33'4 7.9
2017-Nov-14 04:30N 47°40' W 003°30'4 8.7
2017-Nov-14 04:00N 47°41' W 003°23'2 2.8
2017-Nov-14 03:21N 47°43' W 003°21'1 1.5
2017-Nov-14 02:35N 47°44' W 003°22'0 4.6
2017-Nov-14 02:30N 47°43' W 003°22'4 8.4
2017-Nov-14 02:00N 47°39' W 003°23'4 8.4
2017-Nov-14 01:30N 47°36' W 003°25'4 8.6
2017-Nov-14 01:00N 47°32' W 003°30'2 3.1
2017-Nov-14 00:30N 47°31' W 003°30'2 3.7
2017-Nov-14 00:00N 47°29' W 003°30'2 3.7
2017-Nov-13 23:30N 47°27' W 003°30'2 3.8
2017-Nov-13 23:00N 47°25' W 003°29'2 3.8
2017-Nov-13 22:30N 47°23' W 003°28'2 3.7
2017-Nov-13 22:00N 47°22' W 003°28'  
2017-Nov-10 22:33N 47°43' W 003°21'0 3.3
2017-Nov-10 22:30N 47°43' W 003°21'1 2.0
2017-Nov-10 21:58N 47°44' W 003°22'0 0.0
2017-Nov-10 21:30N 47°44' W 003°22'0 0.0
2017-Nov-10 21:00N 47°44' W 003°22'0 0.0
2017-Nov-10 20:30N 47°44' W 003°22'0 0.0
2017-Nov-10 20:00N 47°44' W 003°22'0 0.0
2017-Nov-10 19:30N 47°44' W 003°22'1 2.4
2017-Nov-10 19:00N 47°43' W 003°22'4 8.7
2017-Nov-10 18:30N 47°40' W 003°28'4 8.6
2017-Nov-10 18:00N 47°38' W 003°33'4 7.4
2017-Nov-10 17:31N 47°35' W 003°37'1 1.2
2017-Nov-10 16:28N 47°35' W 003°38'3 1.4
2017-Nov-10 14:22N 47°36' W 003°43'1 4.0
2017-Nov-10 14:00N 47°37' W 003°44'1 1.3
2017-Nov-10 13:30N 47°36' W 003°45'2 3.7
2017-Nov-10 13:00N 47°36' W 003°48'2 1.4
2017-Nov-10 11:53N 47°37' W 003°46'1 2.5
2017-Nov-10 11:30N 47°36' W 003°46'2 4.0
2017-Nov-10 10:58N 47°36' W 003°49'1 1.8
2017-Nov-10 10:19N 47°37' W 003°48'1 3.4
2017-Nov-10 09:59N 47°37' W 003°46'0 1.0
2017-Nov-10 09:30N 47°36' W 003°45'2 4.1
2017-Nov-10 09:00N 47°36' W 003°48'2 1.7
2017-Nov-10 07:42N 47°37' W 003°45'1 3.8
2017-Nov-10 07:30N 47°36' W 003°44'2 3.5
2017-Nov-10 07:00N 47°36' W 003°42'2 3.1
2017-Nov-10 06:16N 47°36' W 003°38'1 2.9
2017-Nov-10 06:01N 47°36' W 003°37'1 2.8
2017-Nov-10 05:30N 47°35' W 003°38'2 3.9
2017-Nov-10 05:01N 47°33' W 003°38'2 3.7
2017-Nov-10 04:30N 47°32' W 003°35'1 2.7
2017-Nov-10 04:00N 47°31' W 003°36'2 4.0
2017-Nov-10 03:30N 47°31' W 003°39'1 2.3
2017-Nov-10 03:00N 47°32' W 003°39'2 3.5
2017-Nov-10 02:30N 47°32' W 003°37'2 3.7
2017-Nov-10 02:00N 47°31' W 003°35'0 0.6
2017-Nov-10 01:30N 47°31' W 003°35'2 3.5
2017-Nov-10 01:00N 47°32' W 003°37'2 3.7
2017-Nov-10 00:30N 47°32' W 003°39'  
Track history (hours):
 
Tides and Currents Weather Stations Pressure Air Temp Water Temp Dewpoint Dewpoint Depression Visibility Wind Speed Wind Dir Waves Ship Positions

F/vphalene

Last reported at 2017-Nov-20 00:19 UTC. Time now 2017-Nov-24 02:07 UTC.
Position N 47°26' W 003°44'.

Length 14 m; draft 4 m.

Type: Fishing. MMSI: 228313000.

Date/timePositionNaut miles runAvg speedWind from/ knotsBaromVisibWave heightAir tempDewpointWater temp
2017-Nov-20 00:19N 47°26' W 003°44'1 3.9
2017-Nov-20 00:00N 47°26' W 003°45'2 4.0
2017-Nov-19 23:30N 47°26' W 003°48'2 2.9
2017-Nov-19 22:57N 47°25' W 003°50'2 3.7
2017-Nov-19 22:22N 47°25' W 003°47'2 4.1
2017-Nov-19 21:57N 47°24' W 003°44'1 2.0
2017-Nov-19 21:29N 47°25' W 003°43'3 3.0
2017-Nov-19 20:36N 47°23' W 003°47'1 3.9
2017-Nov-19 20:25N 47°23' W 003°45'2 3.9
2017-Nov-19 20:00N 47°22' W 003°44'2 4.0
2017-Nov-19 19:29N 47°21' W 003°42'2 3.9
2017-Nov-19 18:57N 47°19' W 003°41'2 3.4
2017-Nov-19 18:17N 47°20' W 003°38'1 3.5
2017-Nov-19 17:59N 47°20' W 003°37'2 4.1
2017-Nov-19 17:29N 47°20' W 003°34'2 2.7
2017-Nov-19 16:38N 47°23' W 003°33'1 4.2
2017-Nov-19 16:30N 47°23' W 003°34'2 3.9
2017-Nov-19 15:57N 47°24' W 003°37'2 4.1
2017-Nov-19 15:30N 47°25' W 003°39'1 2.7
2017-Nov-19 15:00N 47°26' W 003°39'2 3.6
2017-Nov-19 14:30N 47°26' W 003°37'2 3.3
2017-Nov-19 13:55N 47°27' W 003°35'1 3.4
2017-Nov-19 13:30N 47°28' W 003°37'2 3.6
2017-Nov-19 13:00N 47°26' W 003°38'2 3.4
2017-Nov-19 12:30N 47°26' W 003°36'2 3.4
2017-Nov-19 12:00N 47°27' W 003°35'2 3.3
2017-Nov-19 11:30N 47°27' W 003°37'2 3.8
2017-Nov-19 11:00N 47°25' W 003°38'2 3.8
2017-Nov-19 10:30N 47°24' W 003°36'2 3.9
2017-Nov-19 10:00N 47°22' W 003°34'1 1.6
2017-Nov-19 09:18N 47°22' W 003°33'1 4.0
2017-Nov-19 09:00N 47°22' W 003°34'2 3.9
2017-Nov-19 08:30N 47°23' W 003°37'2 3.2
2017-Nov-19 07:56N 47°25' W 003°38'2 4.2
2017-Nov-19 07:25N 47°27' W 003°38'3 4.2
2017-Nov-19 06:37N 47°30' W 003°38'0 4.1
2017-Nov-19 06:30N 47°31' W 003°38'2 4.3
2017-Nov-19 06:00N 47°33' W 003°38'4 8.7
2017-Nov-19 05:30N 47°37' W 003°34'4 8.5
2017-Nov-19 05:00N 47°40' W 003°30'4 8.4
2017-Nov-19 04:30N 47°41' W 003°24'2 5.0
2017-Nov-19 04:00N 47°43' W 003°21'0 0.0
2017-Nov-17 20:15N 47°43' W 003°21'1 4.1
2017-Nov-17 19:59N 47°44' W 003°22'0 0.1
2017-Nov-17 19:30N 47°44' W 003°22'4 7.1
2017-Nov-17 19:00N 47°41' W 003°25'4 8.4
2017-Nov-17 18:30N 47°39' W 003°31'4 8.7
2017-Nov-17 18:00N 47°36' W 003°35'4 7.8
2017-Nov-17 17:30N 47°33' W 003°38'2 3.1
2017-Nov-17 17:00N 47°32' W 003°40'2 3.6
2017-Nov-17 16:31N 47°30' W 003°40'2 3.5
2017-Nov-17 16:00N 47°29' W 003°38'2 3.5
2017-Nov-17 15:30N 47°31' W 003°37'2 3.1
2017-Nov-17 15:00N 47°31' W 003°39'2 3.2
2017-Nov-17 14:30N 47°29' W 003°39'2 3.8
2017-Nov-17 14:00N 47°29' W 003°36'1 2.0
2017-Nov-17 13:30N 47°29' W 003°35'2 4.0
2017-Nov-17 13:00N 47°31' W 003°37'1 2.7
2017-Nov-17 12:30N 47°32' W 003°35'2 3.8
2017-Nov-17 12:00N 47°30' W 003°33'1 2.8
2017-Nov-17 11:30N 47°29' W 003°35'2 3.9
2017-Nov-17 11:00N 47°31' W 003°36'1 2.7
2017-Nov-17 10:30N 47°32' W 003°35'2 3.9
2017-Nov-17 10:00N 47°30' W 003°33'1 2.2
2017-Nov-17 09:30N 47°29' W 003°33'2 3.6
2017-Nov-17 09:00N 47°30' W 003°35'2 3.8
2017-Nov-17 08:29N 47°32' W 003°36'2 3.2
2017-Nov-17 08:00N 47°31' W 003°34'2 3.9
2017-Nov-17 07:30N 47°29' W 003°33'2 3.2
2017-Nov-17 07:00N 47°30' W 003°35'2 4.1
2017-Nov-17 06:30N 47°31' W 003°36'13 3.3
2017-Nov-17 02:31N 47°41' W 003°23'0 7.8
2017-Nov-17 02:31N 47°41' W 003°23'2 4.8
2017-Nov-17 02:00N 47°44' W 003°22'0 0.4
2017-Nov-17 01:30N 47°44' W 003°22'3 5.7
2017-Nov-17 01:00N 47°41' W 003°22'4 8.8
2017-Nov-17 00:30N 47°37' W 003°24'4 8.3
2017-Nov-17 00:00N 47°34' W 003°28'2 3.7
2017-Nov-16 23:30N 47°32' W 003°29'2 4.1
2017-Nov-16 23:00N 47°30' W 003°31'2 4.0
2017-Nov-16 22:30N 47°29' W 003°32'2 3.5
2017-Nov-16 22:00N 47°27' W 003°32'2 4.0
2017-Nov-16 21:30N 47°26' W 003°30'2 4.1
2017-Nov-16 21:00N 47°24' W 003°28'2 3.9
2017-Nov-16 20:30N 47°22' W 003°28'3 3.7
2017-Nov-16 19:49N 47°24' W 003°30'1 3.9
2017-Nov-16 19:31N 47°25' W 003°31'2 3.9
2017-Nov-16 19:00N 47°26' W 003°34'2 3.8
2017-Nov-16 18:30N 47°27' W 003°36'2 3.1
2017-Nov-16 17:58N 47°28' W 003°36'2 3.2
2017-Nov-16 17:23N 47°30' W 003°36'1 3.5
2017-Nov-16 17:00N 47°30' W 003°34'1 2.6
2017-Nov-16 16:30N 47°29' W 003°34'2 3.8
2017-Nov-16 16:01N 47°30' W 003°36'2 3.5
2017-Nov-16 15:30N 47°32' W 003°36'2 3.4
2017-Nov-16 15:01N 47°31' W 003°34'2 3.3
2017-Nov-16 14:30N 47°29' W 003°33'2 3.7
2017-Nov-16 14:00N 47°30' W 003°36'2 3.4
2017-Nov-16 13:30N 47°31' W 003°37'1 2.8
2017-Nov-16 13:00N 47°31' W 003°35'2 3.6
2017-Nov-16 12:30N 47°30' W 003°33'1 2.2
2017-Nov-16 11:54N 47°29' W 003°35'2 4.1
2017-Nov-16 11:30N 47°31' W 003°36'2 3.4
2017-Nov-16 11:00N 47°32' W 003°35'2 3.3
2017-Nov-16 10:31N 47°31' W 003°33'2 3.8
2017-Nov-16 10:01N 47°30' W 003°31'1 2.1
2017-Nov-16 09:30N 47°29' W 003°31'2 3.5
2017-Nov-16 09:00N 47°30' W 003°33'2 3.6
2017-Nov-16 08:30N 47°32' W 003°32'2 3.4
2017-Nov-16 08:00N 47°31' W 003°30'2 3.3
2017-Nov-16 07:30N 47°29' W 003°32'2 3.9
2017-Nov-16 07:00N 47°31' W 003°33'2 3.9
2017-Nov-16 06:31N 47°32' W 003°31'10 3.4
2017-Nov-16 03:35N 47°40' W 003°23'1 7.8
2017-Nov-16 03:30N 47°41' W 003°22'3 5.7
2017-Nov-16 03:01N 47°44' W 003°22'0 0.4
2017-Nov-16 02:29N 47°44' W 003°22'1 2.6
2017-Nov-16 02:00N 47°43' W 003°22'4 8.9
2017-Nov-16 01:30N 47°38' W 003°23'4 8.6
2017-Nov-16 01:01N 47°35' W 003°27'2 4.6
2017-Nov-16 00:30N 47°33' W 003°29'2 3.9
2017-Nov-16 00:00N 47°31' W 003°30'2 3.9
2017-Nov-15 23:30N 47°29' W 003°31'2 3.9
2017-Nov-15 23:00N 47°28' W 003°33'2 3.7
2017-Nov-15 22:31N 47°26' W 003°31'2 4.0
2017-Nov-15 22:00N 47°25' W 003°29'0 0.5
2017-Nov-15 21:27N 47°25' W 003°29'2 3.7
2017-Nov-15 21:00N 47°26' W 003°30'2 3.8
2017-Nov-15 20:30N 47°28' W 003°31'1 2.9
2017-Nov-15 20:01N 47°28' W 003°33'2 3.7
2017-Nov-15 19:31N 47°26' W 003°31'2 3.3
2017-Nov-15 19:00N 47°26' W 003°29'2 4.0
2017-Nov-15 18:30N 47°28' W 003°30'2 4.0
2017-Nov-15 18:01N 47°30' W 003°30'2 4.1
2017-Nov-15 17:30N 47°32' W 003°30'3 2.8
2017-Nov-15 16:33N 47°34' W 003°31'0 3.8
2017-Nov-15 16:29N 47°34' W 003°31'2 3.8
2017-Nov-15 16:00N 47°32' W 003°31'2 3.3
2017-Nov-15 15:30N 47°31' W 003°32'1 2.3
2017-Nov-15 15:00N 47°32' W 003°32'2 3.7
2017-Nov-15 14:31N 47°33' W 003°31'2 3.9
2017-Nov-15 13:59N 47°35' W 003°33'2 3.8
2017-Nov-15 13:28N 47°37' W 003°35'1 2.5
2017-Nov-15 13:00N 47°35' W 003°35'2 3.9
2017-Nov-15 12:30N 47°35' W 003°32'2 3.8
2017-Nov-15 12:00N 47°33' W 003°30'2 3.1
2017-Nov-15 11:30N 47°34' W 003°32'2 3.8
2017-Nov-15 10:59N 47°36' W 003°34'1 1.9
2017-Nov-15 10:30N 47°35' W 003°35'2 3.9
2017-Nov-15 10:00N 47°34' W 003°32'2 4.1
2017-Nov-15 09:30N 47°33' W 003°30'1 2.4
2017-Nov-15 09:00N 47°34' W 003°32'2 3.9
2017-Nov-15 08:30N 47°35' W 003°33'2 3.3
2017-Nov-15 08:00N 47°35' W 003°35'2 3.6
2017-Nov-15 07:30N 47°35' W 003°38'1 2.5
2017-Nov-15 06:53N 47°36' W 003°39'2 3.9
2017-Nov-15 06:30N 47°36' W 003°37'2 3.5
2017-Nov-15 05:59N 47°34' W 003°36'2 4.5
2017-Nov-15 05:29N 47°36' W 003°34'4 8.3
2017-Nov-15 04:59N 47°40' W 003°31'4 8.7
2017-Nov-15 04:30N 47°41' W 003°25'3 3.6
2017-Nov-15 03:35N 47°43' W 003°21'0 4.9
2017-Nov-15 03:30N 47°43' W 003°22'1 0.4
2017-Nov-15 01:50N 47°44' W 003°22'3 8.4
2017-Nov-15 01:30N 47°41' W 003°22'4 8.8
2017-Nov-15 01:01N 47°37' W 003°23'4 8.2
2017-Nov-15 00:30N 47°33' W 003°27'5 8.8
2017-Nov-14 23:59N 47°30' W 003°31'2 4.0
2017-Nov-14 23:30N 47°28' W 003°30'2 3.7
2017-Nov-14 23:00N 47°26' W 003°29'2 3.9
2017-Nov-14 22:29N 47°24' W 003°29'2 3.4
2017-Nov-14 22:00N 47°23' W 003°28'3 3.4
2017-Nov-14 21:01N 47°26' W 003°28'0 4.0
2017-Nov-14 21:00N 47°26' W 003°28'2 3.9
2017-Nov-14 20:29N 47°28' W 003°29'2 4.0
2017-Nov-14 20:00N 47°30' W 003°30'2 4.1
2017-Nov-14 19:30N 47°32' W 003°31'2 4.0
2017-Nov-14 19:00N 47°34' W 003°32'1 1.7
2017-Nov-14 18:30N 47°34' W 003°30'2 3.0
2017-Nov-14 17:59N 47°34' W 003°32'2 3.3
2017-Nov-14 17:30N 47°36' W 003°34'2 3.6
2017-Nov-14 17:00N 47°35' W 003°37'1 2.3
2017-Nov-14 16:30N 47°35' W 003°38'1 2.4
2017-Nov-14 16:00N 47°34' W 003°38'2 4.3
2017-Nov-14 15:30N 47°35' W 003°41'2 4.3
2017-Nov-14 15:00N 47°36' W 003°44'2 4.2
2017-Nov-14 14:30N 47°38' W 003°46'1 2.7
2017-Nov-14 14:00N 47°38' W 003°44'2 4.0
2017-Nov-14 13:30N 47°36' W 003°42'1 2.2
2017-Nov-14 13:00N 47°36' W 003°44'2 2.9
2017-Nov-14 12:15N 47°38' W 003°45'2 3.7
2017-Nov-14 11:45N 47°38' W 003°42'1 3.6
2017-Nov-14 11:30N 47°37' W 003°43'2 3.7
2017-Nov-14 11:00N 47°35' W 003°42'2 3.9
2017-Nov-14 10:30N 47°34' W 003°39'1 1.9
2017-Nov-14 10:00N 47°35' W 003°38'1 1.8
2017-Nov-14 09:30N 47°35' W 003°39'2 3.2
2017-Nov-14 09:00N 47°34' W 003°38'2 3.1
2017-Nov-14 08:30N 47°35' W 003°39'1 1.4
2017-Nov-14 08:00N 47°35' W 003°39'1 2.7
2017-Nov-14 07:30N 47°34' W 003°38'2 3.8
2017-Nov-14 07:00N 47°36' W 003°40'2 3.1
2017-Nov-14 06:30N 47°36' W 003°38'2 4.2
2017-Nov-14 06:00N 47°34' W 003°36'0 1.0
2017-Nov-14 05:30N 47°34' W 003°36'3 6.0
2017-Nov-14 05:00N 47°37' W 003°33'4 7.9
2017-Nov-14 04:30N 47°40' W 003°30'4 8.7
2017-Nov-14 04:00N 47°41' W 003°23'2 2.8
2017-Nov-14 03:21N 47°43' W 003°21'1 1.5
2017-Nov-14 02:35N 47°44' W 003°22'0 4.6
2017-Nov-14 02:30N 47°43' W 003°22'4 8.4
2017-Nov-14 02:00N 47°39' W 003°23'4 8.4
2017-Nov-14 01:30N 47°36' W 003°25'4 8.6
2017-Nov-14 01:00N 47°32' W 003°30'2 3.1
2017-Nov-14 00:30N 47°31' W 003°30'2 3.7
2017-Nov-14 00:00N 47°29' W 003°30'2 3.7
2017-Nov-13 23:30N 47°27' W 003°30'2 3.8
2017-Nov-13 23:00N 47°25' W 003°29'2 3.8
2017-Nov-13 22:30N 47°23' W 003°28'2 3.7
2017-Nov-13 22:00N 47°22' W 003°28'  
2017-Nov-10 22:33N 47°43' W 003°21'0 3.3
2017-Nov-10 22:30N 47°43' W 003°21'1 2.0
2017-Nov-10 21:58N 47°44' W 003°22'0 0.0
2017-Nov-10 21:30N 47°44' W 003°22'0 0.0
2017-Nov-10 21:00N 47°44' W 003°22'0 0.0
2017-Nov-10 20:30N 47°44' W 003°22'0 0.0
2017-Nov-10 20:00N 47°44' W 003°22'0 0.0
2017-Nov-10 19:30N 47°44' W 003°22'1 2.4
2017-Nov-10 19:00N 47°43' W 003°22'4 8.7
2017-Nov-10 18:30N 47°40' W 003°28'4 8.6
2017-Nov-10 18:00N 47°38' W 003°33'4 7.4
2017-Nov-10 17:31N 47°35' W 003°37'1 1.2
2017-Nov-10 16:28N 47°35' W 003°38'3 1.4
2017-Nov-10 14:22N 47°36' W 003°43'1 4.0
2017-Nov-10 14:00N 47°37' W 003°44'1 1.3
2017-Nov-10 13:30N 47°36' W 003°45'2 3.7
2017-Nov-10 13:00N 47°36' W 003°48'2 1.4
2017-Nov-10 11:53N 47°37' W 003°46'1 2.5
2017-Nov-10 11:30N 47°36' W 003°46'2 4.0
2017-Nov-10 10:58N 47°36' W 003°49'1 1.8
2017-Nov-10 10:19N 47°37' W 003°48'1 3.4
2017-Nov-10 09:59N 47°37' W 003°46'0 1.0
2017-Nov-10 09:30N 47°36' W 003°45'2 4.1
2017-Nov-10 09:00N 47°36' W 003°48'2 1.7
2017-Nov-10 07:42N 47°37' W 003°45'1 3.8
2017-Nov-10 07:30N 47°36' W 003°44'2 3.5
2017-Nov-10 07:00N 47°36' W 003°42'2 3.1
2017-Nov-10 06:16N 47°36' W 003°38'1 2.9
2017-Nov-10 06:01N 47°36' W 003°37'1 2.8
2017-Nov-10 05:30N 47°35' W 003°38'2 3.9
2017-Nov-10 05:01N 47°33' W 003°38'2 3.7
2017-Nov-10 04:30N 47°32' W 003°35'1 2.7
2017-Nov-10 04:00N 47°31' W 003°36'2 4.0
2017-Nov-10 03:30N 47°31' W 003°39'1 2.3
2017-Nov-10 03:00N 47°32' W 003°39'2 3.5
2017-Nov-10 02:30N 47°32' W 003°37'2 3.7
2017-Nov-10 02:00N 47°31' W 003°35'0 0.6
2017-Nov-10 01:30N 47°31' W 003°35'2 3.5
2017-Nov-10 01:00N 47°32' W 003°37'2 3.7
2017-Nov-10 00:30N 47°32' W 003°39'  

Dump ship's entire track history